createdAt,value
2023-07-19T00:00:38.980Z,8.91
2023-07-19T00:03:05.715Z,8.56
2023-07-19T00:05:32.425Z,8.67
2023-07-19T00:08:00.495Z,8.80
2023-07-19T00:10:27.184Z,8.47
2023-07-19T00:12:56.732Z,8.28
2023-07-19T00:15:24.212Z,9.04
2023-07-19T00:20:17.556Z,9.14
2023-07-19T00:22:44.316Z,9.04
2023-07-19T00:25:12.408Z,8.89
2023-07-19T00:27:39.136Z,9.20
2023-07-19T00:30:07.105Z,9.31
2023-07-19T00:32:33.944Z,9.04
2023-07-19T00:35:00.742Z,9.11
2023-07-19T00:37:27.487Z,8.88
2023-07-19T00:39:54.175Z,9.49
2023-07-19T00:42:22.251Z,8.95
2023-07-19T00:44:49.090Z,8.82
2023-07-19T00:47:15.796Z,8.70
2023-07-19T00:49:42.484Z,8.95
2023-07-19T00:52:09.216Z,9.04
2023-07-19T00:54:37.086Z,8.94
2023-07-19T00:57:04.283Z,9.24
2023-07-19T00:59:33.375Z,9.12
2023-07-19T01:02:00.206Z,9.41
2023-07-19T01:04:27.051Z,9.10
2023-07-19T01:06:53.781Z,9.67
2023-07-19T01:09:20.453Z,9.37
2023-07-19T01:11:47.187Z,10.07
2023-07-19T01:14:13.900Z,9.60
2023-07-19T01:16:41.976Z,9.63
2023-07-19T01:19:09.688Z,9.39
2023-07-19T01:21:36.620Z,9.22
2023-07-19T01:24:05.627Z,9.70
2023-07-19T01:26:32.714Z,9.88
2023-07-19T01:28:59.409Z,9.53
2023-07-19T01:31:26.171Z,9.17
2023-07-19T01:33:52.917Z,9.63
2023-07-19T01:36:19.616Z,10.12
2023-07-19T01:38:46.303Z,9.80
2023-07-19T01:41:15.431Z,9.57
2023-07-19T01:43:43.154Z,10.10
2023-07-19T01:46:09.917Z,10.55
2023-07-19T01:48:36.648Z,10.02
2023-07-19T01:51:03.517Z,9.59
2023-07-19T01:53:30.273Z,10.03
2023-07-19T01:55:57.014Z,9.83
2023-07-19T01:58:25.279Z,9.97
2023-07-19T02:00:53.315Z,9.65
2023-07-19T02:03:20.066Z,9.50
2023-07-19T02:05:56.344Z,9.81
2023-07-19T02:08:23.060Z,10.04
2023-07-19T02:10:49.764Z,9.75
2023-07-19T02:13:17.838Z,10.25
2023-07-19T02:15:49.115Z,9.63
2023-07-19T02:18:18.204Z,10.10
2023-07-19T02:20:45.622Z,10.83
2023-07-19T02:23:12.437Z,10.15
2023-07-19T02:25:40.874Z,10.96
2023-07-19T02:28:07.627Z,10.34
2023-07-19T02:30:34.309Z,10.41
2023-07-19T02:33:02.401Z,10.32
2023-07-19T02:35:30.876Z,10.52
2023-07-19T02:37:57.611Z,10.57
2023-07-19T02:40:24.405Z,10.43
2023-07-19T02:42:51.145Z,10.38
2023-07-19T02:45:17.847Z,9.88
2023-07-19T02:47:44.655Z,10.02
2023-07-19T02:50:12.730Z,9.68
2023-07-19T02:52:39.487Z,9.63
2023-07-19T02:55:07.898Z,9.65
2023-07-19T02:57:34.713Z,9.65
2023-07-19T03:00:01.424Z,9.60
2023-07-19T03:02:28.302Z,9.65
2023-07-19T03:04:55.100Z,9.27
2023-07-19T03:07:23.207Z,8.55
2023-07-19T03:09:49.993Z,9.57
2023-07-19T03:12:16.690Z,9.50
2023-07-19T03:14:43.435Z,8.80
2023-07-19T03:17:10.146Z,8.88
2023-07-19T03:19:36.910Z,9.02
2023-07-19T03:22:03.758Z,9.29
2023-07-19T03:24:31.892Z,9.76
2023-07-19T03:26:58.562Z,9.44
2023-07-19T03:29:25.321Z,9.56
2023-07-19T03:31:52.050Z,9.63
2023-07-19T03:34:18.759Z,9.23
2023-07-19T03:36:45.501Z,9.02
2023-07-19T03:39:12.772Z,9.24
2023-07-19T03:41:40.833Z,8.83
2023-07-19T03:44:07.748Z,8.51
2023-07-19T03:46:35.029Z,8.68
2023-07-19T03:49:02.111Z,9.05
2023-07-19T03:51:28.852Z,8.51
2023-07-19T03:53:56.147Z,7.89
2023-07-19T03:56:24.120Z,8.06
2023-07-19T03:58:52.169Z,7.51
2023-07-19T04:01:19.370Z,7.47
2023-07-19T04:03:48.963Z,7.42
2023-07-19T04:06:16.856Z,7.18
2023-07-19T04:08:43.545Z,7.56
2023-07-19T04:11:10.846Z,7.57
2023-07-19T04:13:37.537Z,7.22
2023-07-19T04:16:05.800Z,7.15
2023-07-19T04:18:32.494Z,7.69
2023-07-19T04:20:59.247Z,7.23
2023-07-19T04:23:27.643Z,7.27
2023-07-19T04:25:54.511Z,7.49
2023-07-19T04:28:21.845Z,7.31
2023-07-19T04:30:50.304Z,7.09
2023-07-19T04:33:20.084Z,7.17
2023-07-19T04:35:46.901Z,6.39
2023-07-19T04:38:13.688Z,6.28
2023-07-19T04:40:40.440Z,5.89
2023-07-19T04:43:07.173Z,5.51
2023-07-19T04:45:33.895Z,5.58
2023-07-19T04:48:00.885Z,5.78
2023-07-19T04:50:29.065Z,5.56
2023-07-19T04:52:55.962Z,5.69
2023-07-19T04:55:22.725Z,5.49
2023-07-19T04:57:51.215Z,5.64
2023-07-19T05:00:19.772Z,5.71
2023-07-19T05:02:46.708Z,5.54
2023-07-19T05:05:13.826Z,5.47
2023-07-19T05:07:42.257Z,5.73
2023-07-19T05:10:10.007Z,5.54
2023-07-19T05:12:36.715Z,5.67
2023-07-19T05:15:04.705Z,6.11
2023-07-19T05:17:31.477Z,5.83
2023-07-19T05:19:58.647Z,5.77
2023-07-19T05:22:25.812Z,5.60
2023-07-19T05:24:53.903Z,5.62
2023-07-19T05:27:20.590Z,6.08
2023-07-19T05:29:47.332Z,5.50
2023-07-19T05:32:14.034Z,5.58
2023-07-19T05:34:40.757Z,5.84
2023-07-19T05:37:07.454Z,5.91
2023-07-19T05:39:34.377Z,5.93
2023-07-19T05:42:02.486Z,6.17
2023-07-19T05:44:29.183Z,6.32
2023-07-19T05:46:55.917Z,6.14
2023-07-19T05:49:22.651Z,6.36
2023-07-19T05:51:49.384Z,6.18
2023-07-19T05:54:16.101Z,6.39
2023-07-19T05:56:42.827Z,6.44
2023-07-19T05:59:10.867Z,6.44
2023-07-19T06:01:38.066Z,6.30
2023-07-19T06:04:05.336Z,6.02
2023-07-19T06:06:32.145Z,6.43
2023-07-19T06:08:58.846Z,6.06
2023-07-19T06:11:25.531Z,6.48
2023-07-19T06:13:52.240Z,6.03
2023-07-19T06:16:20.356Z,6.27
2023-07-19T06:18:47.080Z,6.12
2023-07-19T06:21:13.782Z,6.17
2023-07-19T06:23:40.494Z,5.92
2023-07-19T06:26:07.258Z,6.14
2023-07-19T06:28:34.023Z,5.60
2023-07-19T06:31:00.738Z,5.83
2023-07-19T06:33:28.849Z,5.77
2023-07-19T06:35:55.556Z,5.49
2023-07-19T06:38:22.297Z,5.55
2023-07-19T06:40:49.013Z,5.60
2023-07-19T06:43:15.792Z,5.74
2023-07-19T06:45:42.549Z,5.89
2023-07-19T06:48:09.317Z,6.06
2023-07-19T06:50:37.932Z,5.85
2023-07-19T06:53:04.695Z,5.97
2023-07-19T06:55:31.394Z,6.05
2023-07-19T06:57:58.113Z,6.79
2023-07-19T07:00:25.126Z,6.25
2023-07-19T07:02:51.948Z,6.20
2023-07-19T07:05:18.670Z,6.34
2023-07-19T07:07:46.774Z,6.58
2023-07-19T07:10:13.507Z,6.39
2023-07-19T07:12:41.551Z,6.32
2023-07-19T07:15:08.741Z,6.35
2023-07-19T07:17:35.660Z,6.62
2023-07-19T07:20:02.349Z,6.79
2023-07-19T07:22:29.128Z,6.49
2023-07-19T07:24:57.447Z,6.34
2023-07-19T07:27:24.162Z,6.54
2023-07-19T07:29:50.870Z,6.07
2023-07-19T07:32:17.661Z,5.90
2023-07-19T07:34:44.474Z,5.71
2023-07-19T07:37:11.320Z,5.98
2023-07-19T07:39:38.056Z,5.96
2023-07-19T07:42:06.745Z,6.17
2023-07-19T07:44:33.464Z,5.91
2023-07-19T07:47:00.293Z,6.07
2023-07-19T07:49:26.983Z,6.21
2023-07-19T07:51:53.712Z,5.73
2023-07-19T07:54:20.408Z,6.19
2023-07-19T07:56:47.131Z,6.05
2023-07-19T07:59:15.189Z,5.79
2023-07-19T08:01:41.906Z,5.71
2023-07-19T08:04:10.357Z,5.80
2023-07-19T08:06:37.301Z,5.70
2023-07-19T08:09:04.031Z,5.70
2023-07-19T08:11:30.767Z,5.62
2023-07-19T08:13:57.488Z,6.02
2023-07-19T08:16:25.586Z,5.78
2023-07-19T08:18:52.296Z,5.81
2023-07-19T08:21:29.866Z,5.62
2023-07-19T08:24:02.424Z,5.85
2023-07-19T08:26:29.210Z,5.73
2023-07-19T08:28:55.960Z,5.83
2023-07-19T08:31:22.877Z,6.11
2023-07-19T08:33:52.483Z,5.71
2023-07-19T08:36:19.276Z,5.49
2023-07-19T08:38:46.032Z,5.36
2023-07-19T08:41:13.097Z,5.57
2023-07-19T08:43:39.863Z,5.31
2023-07-19T08:46:06.563Z,5.44
2023-07-19T08:48:33.710Z,5.46
2023-07-19T08:51:02.033Z,5.45
2023-07-19T08:53:28.832Z,5.22
2023-07-19T08:55:55.568Z,5.68
2023-07-19T08:58:22.325Z,6.01
2023-07-19T09:00:49.863Z,5.84
2023-07-19T09:03:16.715Z,5.67
2023-07-19T09:05:44.739Z,5.27
2023-07-19T09:08:12.878Z,5.70
2023-07-19T09:10:43.249Z,5.62
2023-07-19T09:13:10.016Z,5.75
2023-07-19T09:15:36.753Z,6.02
2023-07-19T09:18:03.984Z,6.28
2023-07-19T09:20:30.824Z,6.05
2023-07-19T09:22:57.649Z,5.74
2023-07-19T09:25:25.820Z,5.45
2023-07-19T09:27:52.794Z,5.94
2023-07-19T09:30:19.563Z,5.99
2023-07-19T09:32:46.375Z,6.28
2023-07-19T09:35:13.124Z,6.91
2023-07-19T09:37:39.801Z,6.89
2023-07-19T09:40:07.444Z,6.88
2023-07-19T09:42:35.473Z,6.97
2023-07-19T09:45:03.734Z,6.83
2023-07-19T09:47:31.291Z,6.90
2023-07-19T09:49:57.987Z,7.06
2023-07-19T09:52:25.575Z,6.98
2023-07-19T09:54:52.292Z,7.14
2023-07-19T09:57:21.738Z,7.42
2023-07-19T09:59:50.600Z,7.44
2023-07-19T10:02:17.317Z,7.52
2023-07-19T10:04:44.164Z,7.34
2023-07-19T10:07:11.908Z,7.21
2023-07-19T10:09:39.779Z,6.85
2023-07-19T10:12:08.343Z,6.71
2023-07-19T10:14:35.152Z,7.19
2023-07-19T10:17:03.804Z,7.11
2023-07-19T10:19:31.010Z,7.63
2023-07-19T10:22:01.635Z,7.16
2023-07-19T10:24:28.320Z,7.23
2023-07-19T10:26:55.073Z,7.15
2023-07-19T10:29:24.096Z,7.15
2023-07-19T10:31:50.822Z,7.16
2023-07-19T10:34:42.434Z,7.26
2023-07-19T10:37:11.464Z,7.00
2023-07-19T10:39:38.138Z,7.00
2023-07-19T10:42:05.620Z,7.05
2023-07-19T10:44:32.575Z,6.81
2023-07-19T10:46:59.345Z,7.13
2023-07-19T10:49:28.220Z,7.48
2023-07-19T10:51:55.267Z,6.95
2023-07-19T10:54:23.238Z,7.12
2023-07-19T10:56:50.170Z,7.32
2023-07-19T10:59:17.035Z,6.91
2023-07-19T11:01:44.205Z,7.25
2023-07-19T11:04:11.003Z,6.81
2023-07-19T11:06:39.451Z,7.01
2023-07-19T11:09:06.925Z,6.70
2023-07-19T11:11:35.476Z,6.42
2023-07-19T11:14:02.185Z,6.59
2023-07-19T11:16:28.957Z,5.85
2023-07-19T11:18:55.698Z,6.43
2023-07-19T11:21:25.436Z,6.73
2023-07-19T11:23:53.662Z,6.18
2023-07-19T11:26:21.250Z,6.27
2023-07-19T11:28:48.697Z,6.35
2023-07-19T11:31:28.522Z,6.48
2023-07-19T11:33:58.639Z,6.29
2023-07-19T11:36:25.398Z,6.00
2023-07-19T11:38:53.455Z,6.21
2023-07-19T11:41:20.479Z,6.46
2023-07-19T11:43:50.604Z,6.33
2023-07-19T11:46:17.432Z,6.54
2023-07-19T11:48:44.217Z,6.36
2023-07-19T11:51:10.909Z,5.91
2023-07-19T11:53:37.601Z,6.17
2023-07-19T11:56:11.820Z,5.92
2023-07-19T11:58:44.989Z,6.00
2023-07-19T12:01:13.431Z,5.66
2023-07-19T12:03:40.350Z,5.29
2023-07-19T12:06:07.060Z,5.41
2023-07-19T12:08:33.821Z,5.08
2023-07-19T12:11:00.503Z,5.75
2023-07-19T12:13:28.624Z,5.88
2023-07-19T12:15:55.355Z,6.03
2023-07-19T12:18:22.053Z,5.93
2023-07-19T12:20:48.758Z,6.00
2023-07-19T12:23:15.583Z,6.26
2023-07-19T12:25:42.371Z,6.14
2023-07-19T12:28:09.128Z,6.00
2023-07-19T12:30:37.194Z,6.12
2023-07-19T12:33:04.169Z,5.85
2023-07-19T12:35:30.884Z,5.97
2023-07-19T12:37:57.604Z,6.18
2023-07-19T12:40:24.294Z,6.22
2023-07-19T12:42:51.004Z,5.93
2023-07-19T12:45:17.748Z,6.25
2023-07-19T12:47:45.816Z,6.03
2023-07-19T12:50:12.607Z,6.36
2023-07-19T12:52:51.174Z,6.34
2023-07-19T12:55:19.498Z,6.12
2023-07-19T12:57:46.352Z,6.04
2023-07-19T13:00:13.819Z,6.24
2023-07-19T13:02:40.752Z,5.72
2023-07-19T13:05:09.380Z,5.94
2023-07-19T13:07:36.254Z,5.80
2023-07-19T13:10:03.170Z,5.86
2023-07-19T13:12:29.842Z,5.69
2023-07-19T13:14:56.574Z,5.04
2023-07-19T13:17:23.350Z,5.27
2023-07-19T13:19:50.125Z,5.06
2023-07-19T13:22:18.154Z,5.01
2023-07-19T13:24:44.836Z,4.87
2023-07-19T13:27:11.528Z,5.06
2023-07-19T13:29:38.385Z,4.80
2023-07-19T13:32:06.906Z,4.91
2023-07-19T13:34:35.161Z,4.75
2023-07-19T13:37:06.165Z,4.68
2023-07-19T13:39:35.619Z,4.79
2023-07-19T13:42:03.004Z,4.67
2023-07-19T13:44:29.707Z,4.47
2023-07-19T13:46:56.442Z,4.86
2023-07-19T13:49:23.175Z,4.57
2023-07-19T13:51:49.867Z,4.85
2023-07-19T13:54:16.595Z,4.66
2023-07-19T13:56:44.655Z,4.27
2023-07-19T13:59:11.391Z,4.13
2023-07-19T14:01:38.232Z,4.13
2023-07-19T14:04:05.419Z,4.06
2023-07-19T14:06:32.228Z,4.14
2023-07-19T14:08:59.061Z,4.24
2023-07-19T14:11:27.771Z,4.24
2023-07-19T14:13:56.327Z,4.17
2023-07-19T14:16:23.689Z,4.37
2023-07-19T14:18:50.737Z,4.15
2023-07-19T14:21:17.506Z,4.56
2023-07-19T14:23:44.270Z,4.28
2023-07-19T14:26:11.006Z,4.08
2023-07-19T14:28:37.772Z,3.95
2023-07-19T14:31:05.898Z,3.62
2023-07-19T14:33:32.800Z,3.25
2023-07-19T14:36:00.679Z,3.30
2023-07-19T14:38:27.768Z,3.03
2023-07-19T14:40:54.890Z,3.06
2023-07-19T14:43:22.019Z,3.20
2023-07-19T14:45:48.759Z,3.03
2023-07-19T14:48:16.833Z,2.95
2023-07-19T14:50:43.528Z,2.75
2023-07-19T14:53:10.262Z,3.03
2023-07-19T14:55:36.941Z,2.84
2023-07-19T14:58:03.649Z,2.98
2023-07-19T15:03:00.356Z,2.96
2023-07-19T15:05:28.991Z,2.79
2023-07-19T15:07:56.097Z,2.83
2023-07-19T15:10:23.288Z,2.85
2023-07-19T15:12:50.308Z,2.74
2023-07-19T15:15:17.336Z,2.79
2023-07-19T15:17:44.254Z,2.68
2023-07-19T15:20:11.638Z,2.51
2023-07-19T15:22:39.716Z,2.46
2023-07-19T15:25:06.705Z,2.54
2023-07-19T15:27:34.247Z,2.26
2023-07-19T15:30:01.039Z,2.33
2023-07-19T15:32:27.852Z,2.55
2023-07-19T15:34:54.573Z,2.57
2023-07-19T15:37:21.321Z,2.32
2023-07-19T15:39:49.371Z,2.38
2023-07-19T15:42:16.067Z,2.24
2023-07-19T15:44:42.799Z,2.44
2023-07-19T15:47:09.521Z,2.44
2023-07-19T15:49:36.231Z,2.42
2023-07-19T15:52:03.178Z,2.41
2023-07-19T15:54:30.068Z,2.61
2023-07-19T15:56:58.371Z,2.57
2023-07-19T15:59:25.133Z,2.42
2023-07-19T16:01:51.863Z,2.55
2023-07-19T16:04:18.649Z,2.38
2023-07-19T16:06:45.335Z,2.44
2023-07-19T16:09:12.063Z,2.16
2023-07-19T16:11:38.811Z,2.32
2023-07-19T16:14:08.056Z,2.10
2023-07-19T16:16:34.882Z,2.28
2023-07-19T16:19:01.836Z,2.44
2023-07-19T16:21:28.536Z,2.34
2023-07-19T16:23:55.251Z,2.37
2023-07-19T16:26:22.017Z,2.32
2023-07-19T16:28:48.775Z,2.37
2023-07-19T16:31:18.349Z,2.41
2023-07-19T16:33:45.108Z,2.13
2023-07-19T16:36:11.814Z,2.27
2023-07-19T16:38:38.499Z,2.23
2023-07-19T16:41:05.281Z,2.30
2023-07-19T16:43:32.098Z,2.29
2023-07-19T16:45:58.840Z,2.31
2023-07-19T16:48:27.076Z,2.13
2023-07-19T16:50:53.771Z,2.28
2023-07-19T16:53:20.506Z,2.15
2023-07-19T16:55:47.881Z,2.26
2023-07-19T16:58:14.648Z,2.29
2023-07-19T17:00:41.397Z,2.19
2023-07-19T17:03:08.291Z,2.31
2023-07-19T17:05:37.145Z,2.27
2023-07-19T17:08:03.975Z,2.18
2023-07-19T17:10:30.709Z,1.87
2023-07-19T17:12:57.409Z,2.25
2023-07-19T17:15:24.137Z,2.23
2023-07-19T17:17:50.896Z,2.36
2023-07-19T17:20:17.681Z,2.43
2023-07-19T17:22:45.897Z,2.48
2023-07-19T17:25:12.583Z,2.46
2023-07-19T17:27:39.266Z,2.74
2023-07-19T17:30:07.080Z,2.80
2023-07-19T17:32:33.912Z,2.86
2023-07-19T17:35:00.691Z,3.53
2023-07-19T17:37:27.390Z,4.07
2023-07-19T17:39:55.422Z,4.32
2023-07-19T17:42:22.219Z,4.32
2023-07-19T17:44:48.914Z,4.53
2023-07-19T17:47:15.611Z,5.31
2023-07-19T17:49:42.280Z,5.86
2023-07-19T17:52:09.112Z,6.21
2023-07-19T17:54:35.815Z,6.32
2023-07-19T17:57:04.155Z,6.01
2023-07-19T17:59:30.856Z,5.84
2023-07-19T18:01:57.581Z,6.25
2023-07-19T18:04:24.320Z,6.42
2023-07-19T18:06:51.078Z,5.87
2023-07-19T18:09:17.789Z,6.26
2023-07-19T18:11:44.492Z,5.51
2023-07-19T18:14:12.666Z,5.27
2023-07-19T18:16:42.568Z,5.39
2023-07-19T18:19:09.330Z,5.04
2023-07-19T18:21:36.012Z,5.09
2023-07-19T18:24:02.753Z,5.25
2023-07-19T18:26:29.440Z,4.93
2023-07-19T18:28:56.162Z,4.95
2023-07-19T18:31:24.509Z,5.29
2023-07-19T18:33:51.536Z,4.74
2023-07-19T18:36:18.231Z,4.77
2023-07-19T18:38:44.997Z,4.62
2023-07-19T18:41:11.803Z,4.48
2023-07-19T18:43:38.522Z,4.17
2023-07-19T18:46:05.268Z,4.35
2023-07-19T18:48:33.573Z,4.27
2023-07-19T18:51:00.387Z,4.37
2023-07-19T18:53:27.079Z,3.88
2023-07-19T18:55:53.788Z,4.35
2023-07-19T18:58:20.506Z,3.98
2023-07-19T19:00:47.503Z,4.06
2023-07-19T19:03:14.384Z,3.69
2023-07-19T19:05:42.593Z,4.13
2023-07-19T19:08:09.305Z,4.27
2023-07-19T19:10:36.077Z,4.01
2023-07-19T19:13:02.811Z,3.86
2023-07-19T19:15:29.532Z,4.11
2023-07-19T19:17:56.323Z,3.91
2023-07-19T19:20:23.027Z,3.58
2023-07-19T19:22:51.209Z,4.17
2023-07-19T19:25:18.110Z,4.11
2023-07-19T19:27:44.830Z,3.97
2023-07-19T19:30:12.031Z,3.67
2023-07-19T19:32:38.755Z,4.04
2023-07-19T19:35:06.099Z,3.74
2023-07-19T19:37:32.864Z,4.00
2023-07-19T19:40:01.009Z,3.84
2023-07-19T19:42:27.748Z,3.97
2023-07-19T19:44:54.451Z,4.01
2023-07-19T19:47:21.162Z,3.97
2023-07-19T19:49:47.937Z,4.43
2023-07-19T19:52:14.886Z,4.51
2023-07-19T19:54:41.804Z,4.45
2023-07-19T19:57:10.143Z,4.35
2023-07-19T19:59:36.844Z,4.35
2023-07-19T20:04:33.732Z,3.96
2023-07-19T20:07:00.706Z,4.33
2023-07-19T20:09:30.895Z,3.79
2023-07-19T20:11:58.634Z,3.97
2023-07-19T20:14:26.709Z,3.78
2023-07-19T20:16:53.558Z,4.45
2023-07-19T20:21:49.931Z,4.26
2023-07-19T20:24:19.677Z,4.49
2023-07-19T20:26:52.643Z,4.48
2023-07-19T20:36:49.630Z,4.00
2023-07-19T20:41:45.989Z,4.00
2023-07-19T20:44:13.104Z,3.99
2023-07-19T20:46:41.142Z,4.19
2023-07-19T20:49:14.013Z,3.92
2023-07-19T20:51:41.297Z,4.06
2023-07-19T20:54:07.992Z,4.08
2023-07-19T20:56:34.770Z,3.93
2023-07-19T20:59:01.474Z,3.74
2023-07-19T21:01:28.231Z,3.91
2023-07-19T21:03:55.087Z,4.22
2023-07-19T21:06:23.360Z,4.20
2023-07-19T21:08:50.113Z,4.25
2023-07-19T21:11:16.887Z,4.47
2023-07-19T21:13:43.698Z,4.52
2023-07-19T21:16:10.482Z,4.40
2023-07-19T21:18:37.191Z,4.14
2023-07-19T21:21:04.056Z,4.43
2023-07-19T21:23:32.099Z,4.09
2023-07-19T21:25:58.819Z,4.29
2023-07-19T21:28:25.571Z,4.52
2023-07-19T21:30:52.341Z,4.53
2023-07-19T21:33:19.027Z,4.12
2023-07-19T21:35:45.769Z,4.48
2023-07-19T21:38:12.575Z,4.41
2023-07-19T21:40:40.612Z,4.35
2023-07-19T21:43:07.304Z,4.50
2023-07-19T21:45:34.067Z,4.35
2023-07-19T21:48:00.854Z,4.41
2023-07-19T21:50:27.610Z,4.60
2023-07-19T21:52:54.360Z,4.21
2023-07-19T21:55:21.049Z,4.33
2023-07-19T21:57:49.157Z,4.33
2023-07-19T22:00:16.332Z,4.34
2023-07-19T22:02:43.094Z,4.23
2023-07-19T22:05:10.020Z,4.38
2023-07-19T22:07:36.761Z,4.68
2023-07-19T22:10:03.667Z,4.96
2023-07-19T22:12:30.364Z,4.78
2023-07-19T22:15:07.829Z,4.58
2023-07-19T22:17:35.433Z,4.47
2023-07-19T22:20:02.216Z,4.61
2023-07-19T22:22:28.961Z,4.69
2023-07-19T22:24:55.678Z,4.53
2023-07-19T22:27:22.406Z,4.53
2023-07-19T22:29:50.979Z,4.45
2023-07-19T22:32:19.052Z,4.26
2023-07-19T22:34:45.750Z,4.39
2023-07-19T22:37:12.554Z,4.34
2023-07-19T22:39:39.289Z,4.50
2023-07-19T22:42:06.240Z,4.53
2023-07-19T22:44:32.922Z,4.58
2023-07-19T22:46:59.656Z,4.12
2023-07-19T22:49:27.742Z,4.14
2023-07-19T22:51:54.440Z,4.09
2023-07-19T22:54:21.124Z,4.03
2023-07-19T22:56:47.846Z,3.57
2023-07-19T22:59:14.527Z,3.60
2023-07-19T23:01:41.256Z,3.55
2023-07-19T23:04:07.990Z,3.32
2023-07-19T23:06:36.066Z,3.59
2023-07-19T23:09:02.818Z,3.33
2023-07-19T23:11:29.527Z,3.36
2023-07-19T23:13:56.219Z,3.70
2023-07-19T23:16:23.279Z,4.25
2023-07-19T23:18:50.278Z,3.79
2023-07-19T23:21:16.993Z,3.94
2023-07-19T23:23:45.049Z,4.08
2023-07-19T23:26:11.771Z,3.60
2023-07-19T23:28:38.444Z,3.97
2023-07-19T23:31:06.871Z,3.85
2023-07-19T23:33:33.614Z,3.83
2023-07-19T23:36:00.308Z,3.62
2023-07-19T23:38:27.087Z,3.44
2023-07-19T23:40:55.168Z,3.53
2023-07-19T23:43:21.935Z,3.47
2023-07-19T23:45:48.621Z,3.78
2023-07-19T23:48:16.410Z,3.48
2023-07-19T23:50:43.099Z,3.49
2023-07-19T23:53:09.815Z,3.73
2023-07-19T23:55:36.498Z,3.46
2023-07-19T23:58:04.662Z,3.34
